createdAt,value
2022-08-17T00:01:52.777Z,77.90
2022-08-17T00:06:57.775Z,78.00
2022-08-17T00:12:41.471Z,81.10
2022-08-17T00:17:30.939Z,86.70
2022-08-17T00:22:36.647Z,89.30
2022-08-17T00:27:42.542Z,90.20
2022-08-17T00:33:12.397Z,90.30
2022-08-17T00:38:14.413Z,90.00
2022-08-17T00:43:27.407Z,89.80
2022-08-17T00:48:33.027Z,90.30
2022-08-17T00:53:52.511Z,91.10
2022-08-17T00:58:59.298Z,91.60
2022-08-17T01:04:05.237Z,92.00
2022-08-17T01:09:09.874Z,92.10
2022-08-17T01:14:15.515Z,99.90
2022-08-17T01:19:26.305Z,99.90
2022-08-17T01:24:34.162Z,99.90
2022-08-17T01:29:42.058Z,99.90
2022-08-17T01:34:50.337Z,99.90
2022-08-17T01:40:05.718Z,99.90
2022-08-17T01:45:17.782Z,99.90
2022-08-17T01:50:27.691Z,99.90
2022-08-17T01:55:42.058Z,99.90
2022-08-17T02:01:00.864Z,99.90
2022-08-17T02:06:27.042Z,99.90
2022-08-17T02:11:37.769Z,99.90
2022-08-17T02:16:43.664Z,99.90
2022-08-17T02:21:52.916Z,99.90
2022-08-17T02:26:58.663Z,99.90
2022-08-17T02:32:03.131Z,99.90
2022-08-17T02:37:08.558Z,99.90
2022-08-17T02:42:16.096Z,99.90
2022-08-17T02:47:20.510Z,99.90
2022-08-17T02:52:42.828Z,99.90
2022-08-17T02:57:50.437Z,99.90
2022-08-17T03:02:55.025Z,99.90
2022-08-17T03:08:00.009Z,99.90
2022-08-17T03:13:06.080Z,99.90
2022-08-17T03:18:14.411Z,99.90
2022-08-17T03:23:30.297Z,99.90
2022-08-17T03:28:36.353Z,99.90
2022-08-17T03:33:40.658Z,99.90
2022-08-17T03:38:45.092Z,99.90
2022-08-17T03:43:50.836Z,99.90
2022-08-17T03:49:12.877Z,99.90
2022-08-17T03:54:34.646Z,99.90
2022-08-17T03:59:41.305Z,99.90
2022-08-17T04:04:45.834Z,99.90
2022-08-17T04:09:50.934Z,99.90
2022-08-17T04:14:56.730Z,99.90
2022-08-17T04:20:01.175Z,99.90
2022-08-17T04:25:10.796Z,99.90
2022-08-17T04:30:17.048Z,99.90
2022-08-17T04:35:24.281Z,99.90
2022-08-17T04:40:47.706Z,99.90
2022-08-17T04:45:58.228Z,99.90
2022-08-17T04:51:03.623Z,99.90
2022-08-17T04:56:16.164Z,99.90
2022-08-17T05:01:25.990Z,99.90
2022-08-17T05:06:31.358Z,99.90
2022-08-17T05:11:37.721Z,99.90
2022-08-17T05:16:45.640Z,99.90
2022-08-17T05:21:51.328Z,99.90
2022-08-17T05:26:55.646Z,99.90
2022-08-17T05:32:39.571Z,99.90
2022-08-17T05:37:34.982Z,99.90
2022-08-17T05:42:39.626Z,99.90
2022-08-17T05:47:48.525Z,99.90
2022-08-17T05:53:05.151Z,99.90
2022-08-17T05:58:24.036Z,99.90
2022-08-17T06:03:49.107Z,99.90
2022-08-17T06:09:06.653Z,99.90
2022-08-17T06:14:43.187Z,99.90
2022-08-17T06:19:55.909Z,99.90
2022-08-17T06:25:10.000Z,99.90
2022-08-17T06:30:21.112Z,99.90
2022-08-17T06:35:38.861Z,99.90
2022-08-17T06:41:03.699Z,99.90
2022-08-17T06:46:14.593Z,99.90
2022-08-17T06:51:31.790Z,99.90
2022-08-17T06:56:54.566Z,99.90
2022-08-17T07:02:08.328Z,99.90
2022-08-17T07:07:38.293Z,99.90
2022-08-17T07:12:47.018Z,98.50
2022-08-17T07:17:52.438Z,94.50
2022-08-17T07:23:14.766Z,93.40
2022-08-17T07:28:24.603Z,92.10
2022-08-17T07:33:33.290Z,91.60
2022-08-17T07:38:58.642Z,85.00
2022-08-17T07:44:03.139Z,78.10
2022-08-17T07:49:33.653Z,77.60
2022-08-17T07:54:42.811Z,79.20
2022-08-17T08:00:23.906Z,79.20
2022-08-17T08:05:55.280Z,76.10
2022-08-17T08:11:09.131Z,72.70
2022-08-17T08:16:27.603Z,68.40
2022-08-17T08:21:59.195Z,67.70
2022-08-17T08:27:25.318Z,68.10
2022-08-17T08:32:54.013Z,65.80
2022-08-17T08:38:16.546Z,63.10
2022-08-17T08:43:37.433Z,65.30
2022-08-17T08:49:14.472Z,68.20
2022-08-17T08:54:36.611Z,73.90
2022-08-17T08:59:57.916Z,78.80
2022-08-17T09:05:16.619Z,86.40
2022-08-17T09:10:30.642Z,99.90
2022-08-17T09:15:46.183Z,99.90
2022-08-17T09:21:00.001Z,99.90
2022-08-17T09:26:22.980Z,99.90
2022-08-17T09:31:48.842Z,99.90
2022-08-17T09:37:08.805Z,99.90
2022-08-17T09:42:45.370Z,99.90
2022-08-17T09:48:02.019Z,99.90
2022-08-17T09:53:06.798Z,99.90
2022-08-17T09:58:29.215Z,99.90
2022-08-17T10:04:06.556Z,99.90
2022-08-17T10:09:52.133Z,99.90
2022-08-17T10:15:26.411Z,99.90
2022-08-17T10:20:49.066Z,99.90
2022-08-17T10:26:46.192Z,99.90
2022-08-17T10:32:12.574Z,99.50
2022-08-17T10:38:11.489Z,76.00
2022-08-17T10:44:35.408Z,59.90
2022-08-17T10:57:41.316Z,56.30
2022-08-17T11:03:05.010Z,52.20
2022-08-17T11:09:15.501Z,51.00
2022-08-17T11:14:44.013Z,47.90
2022-08-17T11:20:20.123Z,47.90
2022-08-17T11:25:38.477Z,45.30
2022-08-17T11:30:51.912Z,41.10
2022-08-17T11:36:13.795Z,39.10
2022-08-17T11:41:30.359Z,39.40
2022-08-17T11:47:17.534Z,37.30
2022-08-17T11:52:46.002Z,36.90
2022-08-17T11:58:01.670Z,36.50
2022-08-17T12:03:55.315Z,38.40
2022-08-17T12:09:16.970Z,37.50
2022-08-17T12:14:45.367Z,37.80
2022-08-17T12:19:53.380Z,36.60
2022-08-17T12:25:13.436Z,35.20
2022-08-17T12:30:23.071Z,35.10
2022-08-17T12:35:38.866Z,35.00
2022-08-17T12:40:55.723Z,35.70
2022-08-17T12:46:13.155Z,34.70
2022-08-17T12:51:24.349Z,34.60
2022-08-17T12:56:31.319Z,33.50
2022-08-17T13:01:38.776Z,33.50
2022-08-17T13:06:52.279Z,34.20
2022-08-17T13:12:06.158Z,33.50
2022-08-17T13:17:13.647Z,33.30
2022-08-17T13:22:25.957Z,33.00
2022-08-17T13:27:31.611Z,33.50
2022-08-17T13:32:44.053Z,34.50
2022-08-17T13:38:03.145Z,34.80
2022-08-17T13:43:07.720Z,34.80
2022-08-17T13:48:30.174Z,37.90
2022-08-17T13:54:09.698Z,39.90
2022-08-17T13:59:18.024Z,42.40
2022-08-17T14:04:45.911Z,45.30
2022-08-17T14:09:57.028Z,46.10
2022-08-17T14:15:02.258Z,48.90
2022-08-17T14:20:13.675Z,53.40
2022-08-17T14:25:23.171Z,55.10
2022-08-17T14:31:38.671Z,56.10
2022-08-17T14:37:24.959Z,59.40
2022-08-17T14:42:37.305Z,99.90
2022-08-17T14:47:43.285Z,99.90
2022-08-17T14:52:50.401Z,99.90
2022-08-17T14:57:58.680Z,99.90
2022-08-17T15:03:05.379Z,99.90
2022-08-17T15:08:09.900Z,99.90
2022-08-17T15:13:59.633Z,99.90
2022-08-17T15:19:24.367Z,99.90
2022-08-17T15:25:44.545Z,99.90
2022-08-17T15:31:18.179Z,99.90
2022-08-17T15:36:22.832Z,99.90
2022-08-17T15:41:29.343Z,99.90
2022-08-17T15:46:35.664Z,99.90
2022-08-17T15:51:41.323Z,99.90
2022-08-17T15:56:46.266Z,99.90
2022-08-17T16:03:13.177Z,99.90
2022-08-17T16:07:20.889Z,99.90
2022-08-17T16:12:28.943Z,99.90
2022-08-17T16:17:40.592Z,99.90
2022-08-17T16:22:47.215Z,99.90
2022-08-17T16:27:53.321Z,99.90
2022-08-17T16:33:03.557Z,99.90
2022-08-17T16:38:08.028Z,99.90
2022-08-17T16:43:12.495Z,99.90
2022-08-17T16:48:18.461Z,99.90
2022-08-17T16:53:22.934Z,99.90
2022-08-17T16:58:27.347Z,99.90
2022-08-17T17:03:33.820Z,99.90
2022-08-17T17:08:44.928Z,99.90
2022-08-17T17:13:57.821Z,99.90
2022-08-17T17:19:15.070Z,99.90
2022-08-17T17:24:32.634Z,99.90
2022-08-17T17:29:52.784Z,99.90
2022-08-17T17:35:09.527Z,99.90
2022-08-17T17:40:24.307Z,99.90
2022-08-17T17:45:38.700Z,99.90
2022-08-17T17:50:56.047Z,99.90
2022-08-17T17:56:18.777Z,99.90
2022-08-17T18:01:53.991Z,99.90
2022-08-17T18:07:17.540Z,99.90
2022-08-17T18:12:37.712Z,99.90
2022-08-17T18:18:13.096Z,99.90
2022-08-17T18:23:21.350Z,99.90
2022-08-17T18:28:34.683Z,99.90
2022-08-17T18:33:41.132Z,99.90
2022-08-17T18:38:47.080Z,99.90
2022-08-17T18:44:07.207Z,99.90
2022-08-17T18:49:29.883Z,99.90
2022-08-17T18:54:39.129Z,99.90
2022-08-17T18:59:48.231Z,99.90
2022-08-17T19:05:07.461Z,99.90
2022-08-17T19:10:29.376Z,99.90
2022-08-17T19:15:42.362Z,99.90
2022-08-17T19:20:57.661Z,99.90
2022-08-17T19:26:54.051Z,99.90
2022-08-17T19:31:46.663Z,99.90
2022-08-17T19:37:01.196Z,99.90
2022-08-17T19:42:17.182Z,99.90
2022-08-17T19:47:54.392Z,99.90
2022-08-17T19:53:10.854Z,99.90
2022-08-17T19:58:48.160Z,99.90
2022-08-17T20:04:04.537Z,99.90
2022-08-17T20:09:21.183Z,99.90
2022-08-17T20:14:37.549Z,99.90
2022-08-17T20:19:53.287Z,99.90
2022-08-17T20:25:12.218Z,99.90
2022-08-17T20:30:38.412Z,99.90
2022-08-17T20:36:06.215Z,99.90
2022-08-17T20:41:20.885Z,99.90
2022-08-17T20:46:57.138Z,99.90
2022-08-17T20:52:08.862Z,99.90
2022-08-17T20:57:55.321Z,99.90
2022-08-17T21:03:50.681Z,99.90
2022-08-17T21:09:20.268Z,99.90
2022-08-17T21:15:00.510Z,99.90
2022-08-17T21:20:26.445Z,99.90
2022-08-17T21:26:02.521Z,99.90
2022-08-17T21:31:10.743Z,99.90
2022-08-17T21:36:28.205Z,99.90
2022-08-17T21:41:47.613Z,99.90
2022-08-17T21:46:54.670Z,99.90
2022-08-17T21:52:02.381Z,99.90
2022-08-17T21:57:17.773Z,99.90
2022-08-17T22:02:26.371Z,99.90
2022-08-17T22:07:43.852Z,99.90
2022-08-17T22:13:05.901Z,99.90
2022-08-17T22:18:29.182Z,99.90
2022-08-17T22:23:56.166Z,99.90
2022-08-17T22:29:01.625Z,99.90
2022-08-17T22:34:15.804Z,99.90
2022-08-17T22:39:42.084Z,99.90
2022-08-17T22:44:50.556Z,99.90
2022-08-17T22:49:59.600Z,99.90
2022-08-17T22:55:35.037Z,99.90
2022-08-17T23:00:43.736Z,99.90
2022-08-17T23:06:04.353Z,99.90
2022-08-17T23:11:10.295Z,99.90
2022-08-17T23:16:14.865Z,99.90
2022-08-17T23:21:27.429Z,99.90
2022-08-17T23:26:39.167Z,99.90
2022-08-17T23:31:43.823Z,99.90
2022-08-17T23:36:53.181Z,99.90
2022-08-17T23:42:01.468Z,99.90
2022-08-17T23:47:07.776Z,99.90
2022-08-17T23:52:16.654Z,99.90
2022-08-17T23:57:33.726Z,99.90
